Topsail Beach, NC

6:23 AM EDT on April 28, 2017 (GMT -0400)
Topsail Beach Fire Dept | | Change Station
Active Advisory: Flood Advisory Active Notice: Flood Advisory

Elev 12 ft 34.37 °N, 77.63 °W | Updated 5 seconds ago

Overcast
Overcast
72.4 °F
Feels Like 72.4 °F
N
9.0
Wind Variable Wind from SW
Gusts 14.0 mph

Today
High -- | Low -- °F
--% Chance of Precip.
Yesterday
High -- | Low -- °F
Precip. -- in
Pressure 30.02 in
Visibility 10.0 miles
Clouds Mostly Cloudy 1200 ft
Overcast 1700 ft
Dew Point 72 °F
Humidity 98%
Rainfall 0.00 in
Snow Depth Not available.
6:23 AM 7:52 PM
Waxing Crescent, 6% visible
METAR KILM 280953Z AUTO 21009G18KT 10SM BKN012 OVC017 24/22 A3002 RMK AO2 SLP164 T02390222
Pressure 30.02 in
Visibility 10.0 miles
Clouds Mostly Cloudy 1200 ft
Overcast 1700 ft
Dew Point 72 °F
Humidity 98%
Rainfall 0.00 in
Snow Depth Not available.
6:23 AM 7:52 PM
Waxing Crescent, 6% visible
METAR KILM 280953Z AUTO 21009G18KT 10SM BKN012 OVC017 24/22 A3002 RMK AO2 SLP164 T02390222

Get Your Daily Forecast Email!

Thanks for signing up!

Be on the lookout for a verification email in your inbox.

You'll start receiving severe weather alerts in your inbox..

×

10-Day Weather Forecast

Almanac

Astronomy

Apr. 28, 2017 Rise Set
Actual Time
Civil Twilight
Nautical Twilight
Astronomical Twilight
Moon
Length of Visible Light
Length of Day
Tomorrow will be .
, % of the Moon is Illuminated

Today's Extremes

State Highs State Lows

Community

WunderPhotos

WunderBlog® & News

Nearby

Air Quality

  Air Quality AQ Index Pollutant
Not available.

Snow Depth

Station Depth Elevation

Earthquake Activity

City Distance Mag. Time & Date
Minimum magnitude displayed is 2.5.

Coastal Water Temperatures

Place Temperature

Stations

Nearby Weather Stations

Station Location Temp. Windchill Dew Point Humidity Wind Precip. Elev Updated Type
                   

Watches & Warnings

Flood Advisory
Issued: 10:10 PM EDT Apr. 27, 2017 – National Weather Service

The flood advisory continues for
the Northeast Cape fear near Burgaw
* until Tuesday evening.
* At 09 PM Thursday the stage was 8.8 feet.
* Advisory stage is 8.0 feet.
* Forecast... the river will rise to near 9.8 feet by early Monday morning.
* Impact... at 8.0 feet... water affects the lowest portions of River Bend Road and
river birch Road.


Lat... Lon 3472 7798 3472 7786 3460 7776 3445 7779
          3444 7788 3457 7788


Tra